sensor_id;sensor_type;location;lat;lon;timestamp;P1;durP1;ratioP1;P2;durP2;ratioP2
1567;SDS011;777;47.156;8.326;2023-11-19T00:00:30;16.05;;;14.65;;
1567;SDS011;777;47.156;8.326;2023-11-19T00:02:57;18.65;;;16.85;;
1567;SDS011;777;47.156;8.326;2023-11-19T00:05:24;18.25;;;16.52;;
1567;SDS011;777;47.156;8.326;2023-11-19T00:07:52;18.95;;;17.23;;
1567;SDS011;777;47.156;8.326;2023-11-19T00:10:19;19.08;;;17.33;;
1567;SDS011;777;47.156;8.326;2023-11-19T00:12:47;19.15;;;17.40;;
1567;SDS011;777;47.156;8.326;2023-11-19T00:15:14;22.35;;;20.25;;
1567;SDS011;777;47.156;8.326;2023-11-19T00:17:44;20.45;;;18.63;;
1567;SDS011;777;47.156;8.326;2023-11-19T00:20:12;22.55;;;20.40;;
1567;SDS011;777;47.156;8.326;2023-11-19T00:22:40;21.38;;;19.45;;
1567;SDS011;777;47.156;8.326;2023-11-19T00:25:09;19.65;;;17.85;;
1567;SDS011;777;47.156;8.326;2023-11-19T00:27:36;19.88;;;17.92;;
1567;SDS011;777;47.156;8.326;2023-11-19T00:30:03;22.20;;;20.00;;
1567;SDS011;777;47.156;8.326;2023-11-19T00:32:32;22.40;;;20.27;;
1567;SDS011;777;47.156;8.326;2023-11-19T00:34:59;22.90;;;20.73;;
1567;SDS011;777;47.156;8.326;2023-11-19T00:37:26;28.95;;;26.05;;
1567;SDS011;777;47.156;8.326;2023-11-19T00:39:53;48.63;;;39.22;;
1567;SDS011;777;47.156;8.326;2023-11-19T00:42:22;43.60;;;37.30;;
1567;SDS011;777;47.156;8.326;2023-11-19T00:44:49;50.97;;;39.55;;
1567;SDS011;777;47.156;8.326;2023-11-19T00:47:16;54.58;;;41.47;;
1567;SDS011;777;47.156;8.326;2023-11-19T00:49:45;51.72;;;39.90;;
1567;SDS011;777;47.156;8.326;2023-11-19T00:52:13;48.45;;;40.45;;
1567;SDS011;777;47.156;8.326;2023-11-19T00:54:41;50.33;;;40.83;;
1567;SDS011;777;47.156;8.326;2023-11-19T00:57:08;44.42;;;37.15;;
1567;SDS011;777;47.156;8.326;2023-11-19T00:59:37;45.17;;;37.55;;
1567;SDS011;777;47.156;8.326;2023-11-19T01:02:04;47.28;;;38.00;;
1567;SDS011;777;47.156;8.326;2023-11-19T01:04:33;47.17;;;38.67;;
1567;SDS011;777;47.156;8.326;2023-11-19T01:07:01;46.67;;;38.15;;
1567;SDS011;777;47.156;8.326;2023-11-19T01:09:30;46.05;;;38.97;;
1567;SDS011;777;47.156;8.326;2023-11-19T01:11:59;49.08;;;41.38;;
1567;SDS011;777;47.156;8.326;2023-11-19T01:14:26;46.38;;;38.33;;
1567;SDS011;777;47.156;8.326;2023-11-19T01:16:55;42.67;;;37.53;;
1567;SDS011;777;47.156;8.326;2023-11-19T01:19:23;47.33;;;38.58;;
1567;SDS011;777;47.156;8.326;2023-11-19T01:21:50;45.25;;;37.40;;
1567;SDS011;777;47.156;8.326;2023-11-19T01:24:17;44.65;;;37.72;;
1567;SDS011;777;47.156;8.326;2023-11-19T01:26:44;35.60;;;31.83;;
1567;SDS011;777;47.156;8.326;2023-11-19T01:29:12;36.35;;;32.40;;
1567;SDS011;777;47.156;8.326;2023-11-19T01:31:40;41.38;;;35.05;;
1567;SDS011;777;47.156;8.326;2023-11-19T01:34:08;36.28;;;31.23;;
1567;SDS011;777;47.156;8.326;2023-11-19T01:36:36;36.47;;;30.90;;
1567;SDS011;777;47.156;8.326;2023-11-19T01:39:05;38.70;;;32.33;;
1567;SDS011;777;47.156;8.326;2023-11-19T01:41:33;43.55;;;35.17;;
1567;SDS011;777;47.156;8.326;2023-11-19T01:44:01;39.63;;;34.83;;
1567;SDS011;777;47.156;8.326;2023-11-19T01:46:29;46.28;;;38.88;;
1567;SDS011;777;47.156;8.326;2023-11-19T01:48:57;52.28;;;40.25;;
1567;SDS011;777;47.156;8.326;2023-11-19T01:51:27;40.65;;;35.92;;
1567;SDS011;777;47.156;8.326;2023-11-19T01:53:54;52.30;;;39.25;;
1567;SDS011;777;47.156;8.326;2023-11-19T01:56:22;44.47;;;37.85;;
1567;SDS011;777;47.156;8.326;2023-11-19T01:58:50;42.03;;;37.17;;
1567;SDS011;777;47.156;8.326;2023-11-19T02:01:19;61.53;;;44.92;;
1567;SDS011;777;47.156;8.326;2023-11-19T02:03:46;81.35;;;39.80;;
1567;SDS011;777;47.156;8.326;2023-11-19T02:06:13;48.13;;;37.75;;
1567;SDS011;777;47.156;8.326;2023-11-19T02:08:42;61.10;;;42.72;;
1567;SDS011;777;47.156;8.326;2023-11-19T02:11:09;70.35;;;43.05;;
1567;SDS011;777;47.156;8.326;2023-11-19T02:13:37;47.85;;;37.47;;
1567;SDS011;777;47.156;8.326;2023-11-19T02:16:06;53.28;;;38.38;;
1567;SDS011;777;47.156;8.326;2023-11-19T02:18:34;61.35;;;41.45;;
1567;SDS011;777;47.156;8.326;2023-11-19T02:21:01;41.75;;;34.65;;
1567;SDS011;777;47.156;8.326;2023-11-19T02:23:30;40.65;;;34.38;;
1567;SDS011;777;47.156;8.326;2023-11-19T02:26:02;44.67;;;37.25;;
1567;SDS011;777;47.156;8.326;2023-11-19T02:28:36;59.95;;;42.22;;
1567;SDS011;777;47.156;8.326;2023-11-19T02:31:03;63.70;;;40.95;;
1567;SDS011;777;47.156;8.326;2023-11-19T02:33:34;53.33;;;38.75;;
1567;SDS011;777;47.156;8.326;2023-11-19T02:36:02;38.58;;;32.08;;
1567;SDS011;777;47.156;8.326;2023-11-19T02:38:30;36.70;;;31.45;;
1567;SDS011;777;47.156;8.326;2023-11-19T02:40:57;33.38;;;29.80;;
1567;SDS011;777;47.156;8.326;2023-11-19T02:43:24;35.80;;;31.30;;
1567;SDS011;777;47.156;8.326;2023-11-19T02:45:52;31.52;;;28.23;;
1567;SDS011;777;47.156;8.326;2023-11-19T02:48:20;31.73;;;28.15;;
1567;SDS011;777;47.156;8.326;2023-11-19T02:50:47;30.27;;;26.73;;
1567;SDS011;777;47.156;8.326;2023-11-19T02:53:14;28.55;;;24.52;;
1567;SDS011;777;47.156;8.326;2023-11-19T02:55:43;27.73;;;24.98;;
1567;SDS011;777;47.156;8.326;2023-11-19T02:58:13;25.95;;;23.33;;
1567;SDS011;777;47.156;8.326;2023-11-19T03:00:48;21.85;;;19.65;;
1567;SDS011;777;47.156;8.326;2023-11-19T03:03:23;21.88;;;19.70;;
1567;SDS011;777;47.156;8.326;2023-11-19T03:05:54;23.33;;;20.83;;
1567;SDS011;777;47.156;8.326;2023-11-19T03:08:21;23.95;;;21.55;;
1567;SDS011;777;47.156;8.326;2023-11-19T03:10:48;25.38;;;22.80;;
1567;SDS011;777;47.156;8.326;2023-11-19T03:13:15;22.33;;;20.17;;
1567;SDS011;777;47.156;8.326;2023-11-19T03:15:43;22.25;;;19.58;;
1567;SDS011;777;47.156;8.326;2023-11-19T03:18:11;21.30;;;19.20;;
1567;SDS011;777;47.156;8.326;2023-11-19T03:20:39;18.63;;;16.83;;
1567;SDS011;777;47.156;8.326;2023-11-19T03:23:06;15.85;;;14.38;;
1567;SDS011;777;47.156;8.326;2023-11-19T03:25:33;16.90;;;15.27;;
1567;SDS011;777;47.156;8.326;2023-11-19T03:28:02;17.23;;;15.20;;
1567;SDS011;777;47.156;8.326;2023-11-19T03:30:29;13.90;;;12.30;;
1567;SDS011;777;47.156;8.326;2023-11-19T03:32:57;14.35;;;13.00;;
1567;SDS011;777;47.156;8.326;2023-11-19T03:35:25;12.45;;;10.45;;
1567;SDS011;777;47.156;8.326;2023-11-19T03:37:54;11.70;;;10.60;;
1567;SDS011;777;47.156;8.326;2023-11-19T03:40:21;12.50;;;11.25;;
1567;SDS011;777;47.156;8.326;2023-11-19T03:42:49;13.40;;;11.88;;
1567;SDS011;777;47.156;8.326;2023-11-19T03:45:16;12.30;;;11.10;;
1567;SDS011;777;47.156;8.326;2023-11-19T03:47:43;11.68;;;10.57;;
1567;SDS011;777;47.156;8.326;2023-11-19T03:50:10;10.40;;;9.40;;
1567;SDS011;777;47.156;8.326;2023-11-19T03:52:36;11.63;;;10.52;;
1567;SDS011;777;47.156;8.326;2023-11-19T03:55:05;11.07;;;9.88;;
1567;SDS011;777;47.156;8.326;2023-11-19T03:57:33;12.15;;;10.95;;
1567;SDS011;777;47.156;8.326;2023-11-19T04:00:01;11.13;;;10.02;;
1567;SDS011;777;47.156;8.326;2023-11-19T04:02:38;12.50;;;11.20;;
1567;SDS011;777;47.156;8.326;2023-11-19T04:05:06;10.82;;;9.80;;
1567;SDS011;777;47.156;8.326;2023-11-19T04:07:34;10.68;;;9.57;;
1567;SDS011;777;47.156;8.326;2023-11-19T04:10:01;12.10;;;10.90;;
1567;SDS011;777;47.156;8.326;2023-11-19T04:12:31;11.55;;;10.38;;
1567;SDS011;777;47.156;8.326;2023-11-19T04:14:58;11.75;;;10.05;;
1567;SDS011;777;47.156;8.326;2023-11-19T04:17:25;11.48;;;10.27;;
1567;SDS011;777;47.156;8.326;2023-11-19T04:19:52;10.68;;;9.65;;
1567;SDS011;777;47.156;8.326;2023-11-19T04:22:19;12.30;;;11.05;;
1567;SDS011;777;47.156;8.326;2023-11-19T04:24:46;12.77;;;11.55;;
1567;SDS011;777;47.156;8.326;2023-11-19T04:27:13;11.68;;;10.57;;
1567;SDS011;777;47.156;8.326;2023-11-19T04:29:41;12.63;;;11.43;;
1567;SDS011;777;47.156;8.326;2023-11-19T04:32:08;13.90;;;12.27;;
1567;SDS011;777;47.156;8.326;2023-11-19T04:34:35;13.40;;;11.55;;
1567;SDS011;777;47.156;8.326;2023-11-19T04:37:03;13.75;;;12.35;;
1567;SDS011;777;47.156;8.326;2023-11-19T04:39:30;16.85;;;15.13;;
1567;SDS011;777;47.156;8.326;2023-11-19T04:41:57;15.68;;;13.98;;
1567;SDS011;777;47.156;8.326;2023-11-19T04:44:24;20.50;;;15.70;;
1567;SDS011;777;47.156;8.326;2023-11-19T04:46:53;16.13;;;13.80;;
1567;SDS011;777;47.156;8.326;2023-11-19T04:49:19;15.88;;;14.38;;
1567;SDS011;777;47.156;8.326;2023-11-19T04:51:46;16.80;;;15.07;;
1567;SDS011;777;47.156;8.326;2023-11-19T04:54:13;17.17;;;15.15;;
1567;SDS011;777;47.156;8.326;2023-11-19T04:56:40;16.40;;;14.43;;
1567;SDS011;777;47.156;8.326;2023-11-19T04:59:11;17.83;;;16.02;;
1567;SDS011;777;47.156;8.326;2023-11-19T05:01:38;20.90;;;17.90;;
1567;SDS011;777;47.156;8.326;2023-11-19T05:04:07;23.08;;;20.67;;
1567;SDS011;777;47.156;8.326;2023-11-19T05:06:34;21.95;;;19.70;;
1567;SDS011;777;47.156;8.326;2023-11-19T05:09:01;21.13;;;18.98;;
1567;SDS011;777;47.156;8.326;2023-11-19T05:11:30;21.92;;;18.70;;
1567;SDS011;777;47.156;8.326;2023-11-19T05:13:56;17.63;;;15.77;;
1567;SDS011;777;47.156;8.326;2023-11-19T05:16:24;20.10;;;17.52;;
1567;SDS011;777;47.156;8.326;2023-11-19T05:18:51;19.15;;;17.27;;
1567;SDS011;777;47.156;8.326;2023-11-19T05:21:19;7.90;;;7.10;;
1567;SDS011;777;47.156;8.326;2023-11-19T05:23:46;4.00;;;3.67;;
1567;SDS011;777;47.156;8.326;2023-11-19T05:26:19;17.67;;;15.82;;
1567;SDS011;777;47.156;8.326;2023-11-19T05:28:47;6.93;;;6.07;;
1567;SDS011;777;47.156;8.326;2023-11-19T05:31:15;5.93;;;4.88;;
1567;SDS011;777;47.156;8.326;2023-11-19T05:33:43;3.20;;;2.35;;
1567;SDS011;777;47.156;8.326;2023-11-19T05:36:11;2.15;;;1.75;;
1567;SDS011;777;47.156;8.326;2023-11-19T05:38:40;2.30;;;1.73;;
1567;SDS011;777;47.156;8.326;2023-11-19T05:41:07;2.50;;;1.73;;
1567;SDS011;777;47.156;8.326;2023-11-19T05:43:34;18.63;;;16.85;;
1567;SDS011;777;47.156;8.326;2023-11-19T05:46:01;7.22;;;6.53;;
1567;SDS011;777;47.156;8.326;2023-11-19T05:48:28;9.63;;;6.25;;
1567;SDS011;777;47.156;8.326;2023-11-19T05:50:55;7.38;;;6.68;;
1567;SDS011;777;47.156;8.326;2023-11-19T05:53:22;18.23;;;16.48;;
1567;SDS011;777;47.156;8.326;2023-11-19T05:55:51;16.33;;;14.73;;
1567;SDS011;777;47.156;8.326;2023-11-19T05:58:22;5.65;;;4.30;;
1567;SDS011;777;47.156;8.326;2023-11-19T06:00:51;15.35;;;13.90;;
1567;SDS011;777;47.156;8.326;2023-11-19T06:03:18;19.00;;;17.20;;
1567;SDS011;777;47.156;8.326;2023-11-19T06:05:46;24.65;;;21.98;;
1567;SDS011;777;47.156;8.326;2023-11-19T06:08:13;20.85;;;18.60;;
1567;SDS011;777;47.156;8.326;2023-11-19T06:10:41;18.83;;;16.98;;
1567;SDS011;777;47.156;8.326;2023-11-19T06:13:10;4.00;;;3.60;;
1567;SDS011;777;47.156;8.326;2023-11-19T06:15:37;21.00;;;18.92;;
1567;SDS011;777;47.156;8.326;2023-11-19T06:18:04;24.58;;;22.05;;
1567;SDS011;777;47.156;8.326;2023-11-19T06:20:31;27.73;;;24.00;;
1567;SDS011;777;47.156;8.326;2023-11-19T06:22:59;57.63;;;26.08;;
1567;SDS011;777;47.156;8.326;2023-11-19T06:25:26;167.80;;;31.42;;
1567;SDS011;777;47.156;8.326;2023-11-19T06:27:53;73.57;;;26.63;;
1567;SDS011;777;47.156;8.326;2023-11-19T06:30:21;48.47;;;22.75;;
1567;SDS011;777;47.156;8.326;2023-11-19T06:32:48;27.13;;;22.17;;
1567;SDS011;777;47.156;8.326;2023-11-19T06:35:15;34.50;;;21.30;;
1567;SDS011;777;47.156;8.326;2023-11-19T06:37:43;48.25;;;21.90;;
1567;SDS011;777;47.156;8.326;2023-11-19T06:40:10;43.55;;;26.80;;
1567;SDS011;777;47.156;8.326;2023-11-19T06:42:38;23.38;;;20.83;;
1567;SDS011;777;47.156;8.326;2023-11-19T06:45:05;32.75;;;23.95;;
1567;SDS011;777;47.156;8.326;2023-11-19T06:47:34;32.47;;;24.23;;
1567;SDS011;777;47.156;8.326;2023-11-19T06:50:01;38.17;;;25.75;;
1567;SDS011;777;47.156;8.326;2023-11-19T06:52:30;25.08;;;20.38;;
1567;SDS011;777;47.156;8.326;2023-11-19T06:54:58;22.45;;;20.15;;
1567;SDS011;777;47.156;8.326;2023-11-19T06:57:24;31.40;;;24.52;;
1567;SDS011;777;47.156;8.326;2023-11-19T06:59:53;23.73;;;21.20;;
1567;SDS011;777;47.156;8.326;2023-11-19T07:02:20;23.80;;;20.13;;
1567;SDS011;777;47.156;8.326;2023-11-19T07:04:48;23.88;;;20.42;;
1567;SDS011;777;47.156;8.326;2023-11-19T07:07:15;23.25;;;20.05;;
1567;SDS011;777;47.156;8.326;2023-11-19T07:09:42;22.67;;;19.17;;
1567;SDS011;777;47.156;8.326;2023-11-19T07:12:09;21.25;;;19.05;;
1567;SDS011;777;47.156;8.326;2023-11-19T07:14:36;19.13;;;17.25;;
1567;SDS011;777;47.156;8.326;2023-11-19T07:17:03;16.63;;;14.85;;
1567;SDS011;777;47.156;8.326;2023-11-19T07:19:31;15.63;;;14.13;;
1567;SDS011;777;47.156;8.326;2023-11-19T07:21:59;16.83;;;15.18;;
1567;SDS011;777;47.156;8.326;2023-11-19T07:24:26;18.65;;;16.75;;
1567;SDS011;777;47.156;8.326;2023-11-19T07:26:54;19.27;;;17.27;;
1567;SDS011;777;47.156;8.326;2023-11-19T07:29:21;19.67;;;16.38;;
1567;SDS011;777;47.156;8.326;2023-11-19T07:31:48;23.35;;;18.77;;
1567;SDS011;777;47.156;8.326;2023-11-19T07:34:16;20.50;;;17.98;;
1567;SDS011;777;47.156;8.326;2023-11-19T07:36:43;17.33;;;15.50;;
1567;SDS011;777;47.156;8.326;2023-11-19T07:39:11;18.38;;;15.77;;
1567;SDS011;777;47.156;8.326;2023-11-19T07:41:38;17.75;;;15.93;;
1567;SDS011;777;47.156;8.326;2023-11-19T07:44:05;16.60;;;15.00;;
1567;SDS011;777;47.156;8.326;2023-11-19T07:46:32;18.13;;;16.17;;
1567;SDS011;777;47.156;8.326;2023-11-19T07:48:59;16.65;;;14.95;;
1567;SDS011;777;47.156;8.326;2023-11-19T07:51:28;15.45;;;13.88;;
1567;SDS011;777;47.156;8.326;2023-11-19T07:53:54;13.57;;;12.27;;
1567;SDS011;777;47.156;8.326;2023-11-19T07:56:23;15.23;;;13.65;;
1567;SDS011;777;47.156;8.326;2023-11-19T07:58:50;13.40;;;12.00;;
1567;SDS011;777;47.156;8.326;2023-11-19T08:01:17;12.35;;;11.15;;
1567;SDS011;777;47.156;8.326;2023-11-19T08:03:44;14.18;;;12.63;;
1567;SDS011;777;47.156;8.326;2023-11-19T08:06:11;14.20;;;12.25;;
1567;SDS011;777;47.156;8.326;2023-11-19T08:08:38;13.68;;;12.27;;
1567;SDS011;777;47.156;8.326;2023-11-19T08:11:05;14.65;;;12.60;;
1567;SDS011;777;47.156;8.326;2023-11-19T08:13:34;11.48;;;10.38;;
1567;SDS011;777;47.156;8.326;2023-11-19T08:16:00;10.73;;;9.60;;
1567;SDS011;777;47.156;8.326;2023-11-19T08:18:28;9.25;;;8.30;;
1567;SDS011;777;47.156;8.326;2023-11-19T08:20:54;10.65;;;8.82;;
1567;SDS011;777;47.156;8.326;2023-11-19T08:23:23;9.45;;;8.63;;
1567;SDS011;777;47.156;8.326;2023-11-19T08:25:50;9.20;;;8.30;;
1567;SDS011;777;47.156;8.326;2023-11-19T08:28:18;10.88;;;9.57;;
1567;SDS011;777;47.156;8.326;2023-11-19T08:30:46;9.48;;;8.48;;
1567;SDS011;777;47.156;8.326;2023-11-19T08:33:13;9.38;;;8.43;;
1567;SDS011;777;47.156;8.326;2023-11-19T08:35:40;6.85;;;6.25;;
1567;SDS011;777;47.156;8.326;2023-11-19T08:38:07;8.50;;;7.70;;
1567;SDS011;777;47.156;8.326;2023-11-19T08:40:34;6.68;;;6.07;;
1567;SDS011;777;47.156;8.326;2023-11-19T08:43:02;7.35;;;6.65;;
1567;SDS011;777;47.156;8.326;2023-11-19T08:45:29;6.50;;;5.90;;
1567;SDS011;777;47.156;8.326;2023-11-19T08:47:58;8.70;;;6.68;;
1567;SDS011;777;47.156;8.326;2023-11-19T08:50:25;6.47;;;5.85;;
1567;SDS011;777;47.156;8.326;2023-11-19T08:52:52;6.30;;;5.70;;
1567;SDS011;777;47.156;8.326;2023-11-19T08:55:19;5.95;;;5.45;;
1567;SDS011;777;47.156;8.326;2023-11-19T08:57:46;5.20;;;4.65;;
1567;SDS011;777;47.156;8.326;2023-11-19T09:00:13;6.53;;;4.75;;
1567;SDS011;777;47.156;8.326;2023-11-19T09:02:40;4.45;;;4.05;;
1567;SDS011;777;47.156;8.326;2023-11-19T09:05:09;5.07;;;4.57;;
1567;SDS011;777;47.156;8.326;2023-11-19T09:07:37;6.28;;;5.38;;
1567;SDS011;777;47.156;8.326;2023-11-19T09:10:04;8.63;;;6.88;;
1567;SDS011;777;47.156;8.326;2023-11-19T09:12:33;9.30;;;7.88;;
1567;SDS011;777;47.156;8.326;2023-11-19T09:15:00;10.02;;;8.43;;
1567;SDS011;777;47.156;8.326;2023-11-19T09:17:27;8.20;;;7.40;;
1567;SDS011;777;47.156;8.326;2023-11-19T09:19:54;7.95;;;7.25;;
1567;SDS011;777;47.156;8.326;2023-11-19T09:22:23;12.23;;;9.35;;
1567;SDS011;777;47.156;8.326;2023-11-19T09:24:50;9.40;;;7.93;;
1567;SDS011;777;47.156;8.326;2023-11-19T09:27:17;7.70;;;7.00;;
1567;SDS011;777;47.156;8.326;2023-11-19T09:29:44;6.80;;;5.75;;
1567;SDS011;777;47.156;8.326;2023-11-19T09:32:11;8.80;;;8.00;;
1567;SDS011;777;47.156;8.326;2023-11-19T09:34:38;9.18;;;7.85;;
1567;SDS011;777;47.156;8.326;2023-11-19T09:37:05;7.10;;;6.40;;
1567;SDS011;777;47.156;8.326;2023-11-19T09:39:34;6.65;;;5.97;;
1567;SDS011;777;47.156;8.326;2023-11-19T09:42:01;7.90;;;5.38;;
1567;SDS011;777;47.156;8.326;2023-11-19T09:44:28;10.13;;;5.32;;
1567;SDS011;777;47.156;8.326;2023-11-19T09:46:55;9.32;;;5.70;;
1567;SDS011;777;47.156;8.326;2023-11-19T09:49:25;7.40;;;5.93;;
1567;SDS011;777;47.156;8.326;2023-11-19T09:51:53;8.98;;;6.35;;
1567;SDS011;777;47.156;8.326;2023-11-19T09:54:20;7.13;;;6.43;;
1567;SDS011;777;47.156;8.326;2023-11-19T09:56:49;7.38;;;6.75;;
1567;SDS011;777;47.156;8.326;2023-11-19T09:59:16;7.97;;;7.05;;
1567;SDS011;777;47.156;8.326;2023-11-19T10:01:44;7.20;;;6.53;;
1567;SDS011;777;47.156;8.326;2023-11-19T10:04:14;7.95;;;7.25;;
1567;SDS011;777;47.156;8.326;2023-11-19T10:06:42;8.02;;;7.22;;
1567;SDS011;777;47.156;8.326;2023-11-19T10:09:09;8.95;;;7.22;;
1567;SDS011;777;47.156;8.326;2023-11-19T10:11:38;7.75;;;6.82;;
1567;SDS011;777;47.156;8.326;2023-11-19T10:14:06;8.82;;;7.88;;
1567;SDS011;777;47.156;8.326;2023-11-19T10:16:34;9.63;;;8.73;;
1567;SDS011;777;47.156;8.326;2023-11-19T10:19:01;7.82;;;7.13;;
1567;SDS011;777;47.156;8.326;2023-11-19T10:21:28;12.40;;;10.05;;
1567;SDS011;777;47.156;8.326;2023-11-19T10:23:58;8.52;;;7.72;;
1567;SDS011;777;47.156;8.326;2023-11-19T10:26:26;8.48;;;7.57;;
1567;SDS011;777;47.156;8.326;2023-11-19T10:28:54;6.80;;;6.20;;
1567;SDS011;777;47.156;8.326;2023-11-19T10:31:23;7.63;;;6.90;;
1567;SDS011;777;47.156;8.326;2023-11-19T10:33:51;7.38;;;6.45;;
1567;SDS011;777;47.156;8.326;2023-11-19T10:36:19;7.00;;;6.30;;
1567;SDS011;777;47.156;8.326;2023-11-19T10:38:52;7.22;;;5.90;;
1567;SDS011;777;47.156;8.326;2023-11-19T10:43:53;6.32;;;5.28;;
1567;SDS011;777;47.156;8.326;2023-11-19T10:46:20;6.88;;;4.60;;
1567;SDS011;777;47.156;8.326;2023-11-19T10:48:49;5.50;;;5.00;;
1567;SDS011;777;47.156;8.326;2023-11-19T10:51:18;5.85;;;5.05;;
1567;SDS011;777;47.156;8.326;2023-11-19T10:53:48;4.88;;;4.47;;
1567;SDS011;777;47.156;8.326;2023-11-19T10:56:16;6.55;;;4.63;;
1567;SDS011;777;47.156;8.326;2023-11-19T10:58:44;6.13;;;4.57;;
1567;SDS011;777;47.156;8.326;2023-11-19T11:01:13;4.20;;;3.75;;
1567;SDS011;777;47.156;8.326;2023-11-19T11:03:45;7.25;;;6.55;;
1567;SDS011;777;47.156;8.326;2023-11-19T11:06:13;6.65;;;6.15;;
1567;SDS011;777;47.156;8.326;2023-11-19T11:08:40;4.72;;;4.03;;
1567;SDS011;777;47.156;8.326;2023-11-19T11:11:08;5.05;;;4.47;;
1567;SDS011;777;47.156;8.326;2023-11-19T11:13:40;6.07;;;5.50;;
1567;SDS011;777;47.156;8.326;2023-11-19T11:16:09;5.30;;;4.80;;
1567;SDS011;777;47.156;8.326;2023-11-19T11:18:36;6.68;;;6.07;;
1567;SDS011;777;47.156;8.326;2023-11-19T11:21:04;9.35;;;8.48;;
1567;SDS011;777;47.156;8.326;2023-11-19T11:23:44;15.80;;;14.20;;
1567;SDS011;777;47.156;8.326;2023-11-19T11:26:38;8.88;;;8.13;;
1567;SDS011;777;47.156;8.326;2023-11-19T11:29:26;8.05;;;4.72;;
1567;SDS011;777;47.156;8.326;2023-11-19T11:32:04;6.45;;;5.82;;
1567;SDS011;777;47.156;8.326;2023-11-19T11:34:52;8.07;;;7.28;;
1567;SDS011;777;47.156;8.326;2023-11-19T11:37:26;5.00;;;3.23;;
1567;SDS011;777;47.156;8.326;2023-11-19T11:40:00;7.55;;;5.50;;
1567;SDS011;777;47.156;8.326;2023-11-19T11:42:31;5.95;;;4.32;;
1567;SDS011;777;47.156;8.326;2023-11-19T11:44:57;5.35;;;3.90;;
1567;SDS011;777;47.156;8.326;2023-11-19T11:47:25;5.25;;;4.38;;
1567;SDS011;777;47.156;8.326;2023-11-19T11:49:52;3.35;;;2.50;;
1567;SDS011;777;47.156;8.326;2023-11-19T11:52:20;3.25;;;2.60;;
1567;SDS011;777;47.156;8.326;2023-11-19T11:54:47;3.08;;;2.63;;
1567;SDS011;777;47.156;8.326;2023-11-19T11:57:15;6.80;;;2.97;;
1567;SDS011;777;47.156;8.326;2023-11-19T11:59:45;3.22;;;2.53;;
1567;SDS011;777;47.156;8.326;2023-11-19T12:02:12;3.20;;;2.30;;
1567;SDS011;777;47.156;8.326;2023-11-19T12:04:41;3.70;;;2.03;;
1567;SDS011;777;47.156;8.326;2023-11-19T12:07:11;2.97;;;2.22;;
1567;SDS011;777;47.156;8.326;2023-11-19T12:09:40;4.85;;;1.90;;
1567;SDS011;777;47.156;8.326;2023-11-19T12:12:08;3.80;;;2.28;;
1567;SDS011;777;47.156;8.326;2023-11-19T12:15:04;4.88;;;3.80;;
1567;SDS011;777;47.156;8.326;2023-11-19T12:17:42;5.45;;;4.05;;
1567;SDS011;777;47.156;8.326;2023-11-19T12:20:15;3.08;;;2.60;;
1567;SDS011;777;47.156;8.326;2023-11-19T12:22:44;4.22;;;2.08;;
1567;SDS011;777;47.156;8.326;2023-11-19T12:25:13;3.80;;;1.90;;
1567;SDS011;777;47.156;8.326;2023-11-19T12:27:43;2.50;;;2.10;;
1567;SDS011;777;47.156;8.326;2023-11-19T12:30:12;5.85;;;4.20;;
1567;SDS011;777;47.156;8.326;2023-11-19T12:32:44;8.88;;;6.60;;
1567;SDS011;777;47.156;8.326;2023-11-19T12:35:12;8.23;;;6.80;;
1567;SDS011;777;47.156;8.326;2023-11-19T12:37:42;8.75;;;6.95;;
1567;SDS011;777;47.156;8.326;2023-11-19T12:40:11;6.95;;;5.47;;
1567;SDS011;777;47.156;8.326;2023-11-19T12:42:40;4.53;;;4.03;;
1567;SDS011;777;47.156;8.326;2023-11-19T12:45:07;4.20;;;2.45;;
1567;SDS011;777;47.156;8.326;2023-11-19T12:47:37;2.42;;;2.15;;
1567;SDS011;777;47.156;8.326;2023-11-19T12:50:04;2.42;;;2.00;;
1567;SDS011;777;47.156;8.326;2023-11-19T12:52:33;2.33;;;1.88;;
1567;SDS011;777;47.156;8.326;2023-11-19T12:55:00;4.13;;;2.28;;
1567;SDS011;777;47.156;8.326;2023-11-19T13:00:18;3.53;;;2.45;;
1567;SDS011;777;47.156;8.326;2023-11-19T13:02:48;5.88;;;2.22;;
1567;SDS011;777;47.156;8.326;2023-11-19T13:05:21;4.55;;;2.55;;
1567;SDS011;777;47.156;8.326;2023-11-19T13:07:49;2.80;;;1.40;;
1567;SDS011;777;47.156;8.326;2023-11-19T13:10:16;1.33;;;0.50;;
1567;SDS011;777;47.156;8.326;2023-11-19T13:12:43;0.82;;;0.45;;
1567;SDS011;777;47.156;8.326;2023-11-19T13:15:22;1.23;;;0.50;;
1567;SDS011;777;47.156;8.326;2023-11-19T13:17:52;0.93;;;0.45;;
1567;SDS011;777;47.156;8.326;2023-11-19T13:20:19;1.63;;;0.57;;
1567;SDS011;777;47.156;8.326;2023-11-19T13:22:53;1.58;;;0.55;;
1567;SDS011;777;47.156;8.326;2023-11-19T13:25:21;0.70;;;0.40;;
1567;SDS011;777;47.156;8.326;2023-11-19T13:27:48;0.80;;;0.30;;
1567;SDS011;777;47.156;8.326;2023-11-19T13:30:16;1.90;;;0.40;;
1567;SDS011;777;47.156;8.326;2023-11-19T13:32:43;1.15;;;0.38;;
1567;SDS011;777;47.156;8.326;2023-11-19T13:35:12;0.90;;;0.63;;
1567;SDS011;777;47.156;8.326;2023-11-19T13:37:39;0.75;;;0.30;;
1567;SDS011;777;47.156;8.326;2023-11-19T13:40:07;1.10;;;0.30;;
1567;SDS011;777;47.156;8.326;2023-11-19T13:42:35;0.65;;;0.30;;
1567;SDS011;777;47.156;8.326;2023-11-19T13:45:07;0.60;;;0.25;;
1567;SDS011;777;47.156;8.326;2023-11-19T13:47:36;1.05;;;0.40;;
1567;SDS011;777;47.156;8.326;2023-11-19T13:50:06;0.40;;;0.30;;
1567;SDS011;777;47.156;8.326;2023-11-19T13:52:36;2.70;;;0.30;;
1567;SDS011;777;47.156;8.326;2023-11-19T13:55:05;0.38;;;0.30;;
1567;SDS011;777;47.156;8.326;2023-11-19T13:57:33;0.45;;;0.30;;
1567;SDS011;777;47.156;8.326;2023-11-19T14:00:00;1.33;;;0.17;;
1567;SDS011;777;47.156;8.326;2023-11-19T14:02:34;0.30;;;0.20;;
1567;SDS011;777;47.156;8.326;2023-11-19T14:05:01;0.45;;;0.22;;
1567;SDS011;777;47.156;8.326;2023-11-19T14:07:29;0.82;;;0.32;;
1567;SDS011;777;47.156;8.326;2023-11-19T14:09:57;3.72;;;0.35;;
1567;SDS011;777;47.156;8.326;2023-11-19T14:12:24;1.13;;;0.30;;
1567;SDS011;777;47.156;8.326;2023-11-19T14:14:51;0.80;;;0.20;;
1567;SDS011;777;47.156;8.326;2023-11-19T14:17:18;0.85;;;0.17;;
1567;SDS011;777;47.156;8.326;2023-11-19T14:19:45;0.70;;;0.20;;
1567;SDS011;777;47.156;8.326;2023-11-19T14:22:12;2.05;;;0.20;;
1567;SDS011;777;47.156;8.326;2023-11-19T14:24:39;0.30;;;0.20;;
1567;SDS011;777;47.156;8.326;2023-11-19T14:27:09;0.57;;;0.30;;
1567;SDS011;777;47.156;8.326;2023-11-19T14:29:36;0.50;;;0.25;;
1567;SDS011;777;47.156;8.326;2023-11-19T14:32:03;2.88;;;0.40;;
1567;SDS011;777;47.156;8.326;2023-11-19T14:34:30;1.08;;;0.60;;
1567;SDS011;777;47.156;8.326;2023-11-19T14:36:58;0.70;;;0.40;;
1567;SDS011;777;47.156;8.326;2023-11-19T14:39:25;0.73;;;0.40;;
1567;SDS011;777;47.156;8.326;2023-11-19T14:41:54;1.10;;;0.50;;
1567;SDS011;777;47.156;8.326;2023-11-19T14:44:25;1.23;;;0.65;;
1567;SDS011;777;47.156;8.326;2023-11-19T14:46:51;1.08;;;0.60;;
1567;SDS011;777;47.156;8.326;2023-11-19T14:49:19;0.70;;;0.50;;
1567;SDS011;777;47.156;8.326;2023-11-19T14:51:45;0.70;;;0.50;;
1567;SDS011;777;47.156;8.326;2023-11-19T14:54:12;2.42;;;1.08;;
1567;SDS011;777;47.156;8.326;2023-11-19T14:56:41;2.50;;;1.38;;
1567;SDS011;777;47.156;8.326;2023-11-19T14:59:08;3.05;;;2.08;;
1567;SDS011;777;47.156;8.326;2023-11-19T15:01:36;2.08;;;1.10;;
1567;SDS011;777;47.156;8.326;2023-11-19T15:04:04;1.20;;;0.82;;
1567;SDS011;777;47.156;8.326;2023-11-19T15:06:30;1.23;;;0.63;;
1567;SDS011;777;47.156;8.326;2023-11-19T15:08:58;1.38;;;1.00;;
1567;SDS011;777;47.156;8.326;2023-11-19T15:11:25;2.13;;;1.45;;
1567;SDS011;777;47.156;8.326;2023-11-19T15:13:52;3.20;;;1.40;;
1567;SDS011;777;47.156;8.326;2023-11-19T15:16:19;1.88;;;1.30;;
1567;SDS011;777;47.156;8.326;2023-11-19T15:18:52;1.35;;;0.70;;
1567;SDS011;777;47.156;8.326;2023-11-19T15:21:19;3.42;;;0.90;;
1567;SDS011;777;47.156;8.326;2023-11-19T15:23:46;2.60;;;0.60;;
1567;SDS011;777;47.156;8.326;2023-11-19T15:26:13;1.30;;;0.60;;